sensor_id;sensor_type;location;lat;lon;timestamp;pressure;altitude;pressure_sealevel;temperature;humidity
59588;BME280;45412;54.472;18.464;2023-05-07T00:00:05;100824.61;;;4.96;77.50
59588;BME280;45412;54.472;18.464;2023-05-07T00:03:17;100824.13;;;4.94;77.27
59588;BME280;45412;54.472;18.464;2023-05-07T00:06:08;100824.30;;;4.94;77.36
59588;BME280;45412;54.472;18.464;2023-05-07T00:08:57;100828.83;;;4.96;77.12
59588;BME280;45412;54.472;18.464;2023-05-07T00:11:48;100825.50;;;4.95;76.80
59588;BME280;45412;54.472;18.464;2023-05-07T00:14:36;100829.88;;;4.92;76.36
59588;BME280;45412;54.472;18.464;2023-05-07T00:17:25;100829.49;;;4.88;76.01
59588;BME280;45412;54.472;18.464;2023-05-07T00:20:13;100823.34;;;4.88;75.43
59588;BME280;45412;54.472;18.464;2023-05-07T00:23:02;100826.27;;;4.85;75.33
59588;BME280;45412;54.472;18.464;2023-05-07T00:25:50;100827.85;;;4.82;74.96
59588;BME280;45412;54.472;18.464;2023-05-07T00:28:38;100824.85;;;4.77;74.71
59588;BME280;45412;54.472;18.464;2023-05-07T00:31:27;100826.70;;;4.75;74.60
59588;BME280;45412;54.472;18.464;2023-05-07T00:34:15;100826.66;;;4.72;74.06
59588;BME280;45412;54.472;18.464;2023-05-07T00:37:03;100834.66;;;4.70;73.92
59588;BME280;45412;54.472;18.464;2023-05-07T00:39:53;100832.17;;;4.66;73.73
59588;BME280;45412;54.472;18.464;2023-05-07T00:42:41;100830.89;;;4.63;73.76
59588;BME280;45412;54.472;18.464;2023-05-07T00:45:29;100834.48;;;4.61;73.75
59588;BME280;45412;54.472;18.464;2023-05-07T00:48:17;100834.48;;;4.60;73.77
59588;BME280;45412;54.472;18.464;2023-05-07T00:51:06;100834.58;;;4.59;73.53
59588;BME280;45412;54.472;18.464;2023-05-07T00:53:54;100835.95;;;4.55;73.82
59588;BME280;45412;54.472;18.464;2023-05-07T00:56:42;100837.61;;;4.53;74.18
59588;BME280;45412;54.472;18.464;2023-05-07T00:59:31;100839.74;;;4.52;74.21
59588;BME280;45412;54.472;18.464;2023-05-07T01:02:20;100842.92;;;4.52;73.93
59588;BME280;45412;54.472;18.464;2023-05-07T01:05:13;100844.56;;;4.51;73.78
59588;BME280;45412;54.472;18.464;2023-05-07T01:08:04;100849.11;;;4.47;73.75
59588;BME280;45412;54.472;18.464;2023-05-07T01:10:54;100846.70;;;4.41;73.69
59588;BME280;45412;54.472;18.464;2023-05-07T01:13:43;100853.58;;;4.35;73.80
59588;BME280;45412;54.472;18.464;2023-05-07T01:16:32;100850.80;;;4.30;73.97
59588;BME280;45412;54.472;18.464;2023-05-07T01:19:21;100849.70;;;4.27;74.00
59588;BME280;45412;54.472;18.464;2023-05-07T01:22:10;100852.91;;;4.25;74.02
59588;BME280;45412;54.472;18.464;2023-05-07T01:25:07;100857.71;;;4.24;74.04
59588;BME280;45412;54.472;18.464;2023-05-07T01:27:58;100857.98;;;4.22;74.59
59588;BME280;45412;54.472;18.464;2023-05-07T01:30:54;100858.96;;;4.19;74.74
59588;BME280;45412;54.472;18.464;2023-05-07T01:33:48;100859.98;;;4.15;74.96
59588;BME280;45412;54.472;18.464;2023-05-07T01:36:38;100862.25;;;4.11;75.11
59588;BME280;45412;54.472;18.464;2023-05-07T01:39:29;100861.60;;;4.05;75.37
59588;BME280;45412;54.472;18.464;2023-05-07T01:42:17;100859.03;;;3.99;75.65
59588;BME280;45412;54.472;18.464;2023-05-07T01:45:06;100861.02;;;3.93;76.02
59588;BME280;45412;54.472;18.464;2023-05-07T01:47:56;100860.05;;;3.85;76.37
59588;BME280;45412;54.472;18.464;2023-05-07T01:50:46;100865.41;;;3.78;76.70
59588;BME280;45412;54.472;18.464;2023-05-07T01:53:39;100866.38;;;3.71;77.27
59588;BME280;45412;54.472;18.464;2023-05-07T01:56:28;100868.52;;;3.65;77.55
59588;BME280;45412;54.472;18.464;2023-05-07T01:59:17;100867.32;;;3.59;77.80
59588;BME280;45412;54.472;18.464;2023-05-07T02:02:05;100867.83;;;3.55;78.01
59588;BME280;45412;54.472;18.464;2023-05-07T02:04:53;100868.46;;;3.52;78.46
59588;BME280;45412;54.472;18.464;2023-05-07T02:07:42;100868.39;;;3.49;78.84
59588;BME280;45412;54.472;18.464;2023-05-07T02:10:30;100866.73;;;3.47;79.17
59588;BME280;45412;54.472;18.464;2023-05-07T02:13:19;100867.90;;;3.43;79.50
59588;BME280;45412;54.472;18.464;2023-05-07T02:16:10;100865.75;;;3.39;79.68
59588;BME280;45412;54.472;18.464;2023-05-07T02:18:59;100869.98;;;3.33;79.75
59588;BME280;45412;54.472;18.464;2023-05-07T02:21:47;100875.05;;;3.29;79.87
59588;BME280;45412;54.472;18.464;2023-05-07T02:24:35;100878.09;;;3.22;80.01
59588;BME280;45412;54.472;18.464;2023-05-07T02:27:24;100882.09;;;3.18;80.37
59588;BME280;45412;54.472;18.464;2023-05-07T02:30:13;100885.54;;;3.14;80.42
59588;BME280;45412;54.472;18.464;2023-05-07T02:33:01;100887.94;;;3.11;80.35
59588;BME280;45412;54.472;18.464;2023-05-07T02:35:49;100886.52;;;3.06;80.46
59588;BME280;45412;54.472;18.464;2023-05-07T02:38:37;100890.70;;;3.01;80.51
59588;BME280;45412;54.472;18.464;2023-05-07T02:41:25;100891.79;;;2.95;80.56
59588;BME280;45412;54.472;18.464;2023-05-07T02:44:15;100896.38;;;2.88;80.69
59588;BME280;45412;54.472;18.464;2023-05-07T02:47:05;100892.57;;;2.82;80.74
59588;BME280;45412;54.472;18.464;2023-05-07T02:49:56;100894.77;;;2.73;80.74
59588;BME280;45412;54.472;18.464;2023-05-07T02:52:45;100895.71;;;2.65;81.32
59588;BME280;45412;54.472;18.464;2023-05-07T02:55:33;100897.27;;;2.60;81.93
59588;BME280;45412;54.472;18.464;2023-05-07T02:58:22;100894.79;;;2.56;81.92
59588;BME280;45412;54.472;18.464;2023-05-07T03:01:10;100894.40;;;2.51;82.02
59588;BME280;45412;54.472;18.464;2023-05-07T03:04:07;100893.84;;;2.46;82.24
59588;BME280;45412;54.472;18.464;2023-05-07T03:06:55;100893.60;;;2.43;82.47
59588;BME280;45412;54.472;18.464;2023-05-07T03:09:43;100899.31;;;2.40;82.74
59588;BME280;45412;54.472;18.464;2023-05-07T03:12:31;100898.20;;;2.36;82.77
59588;BME280;45412;54.472;18.464;2023-05-07T03:15:19;100899.55;;;2.32;82.94
59588;BME280;45412;54.472;18.464;2023-05-07T03:18:07;100902.23;;;2.30;83.08
59588;BME280;45412;54.472;18.464;2023-05-07T03:20:55;100903.35;;;2.28;83.15
59588;BME280;45412;54.472;18.464;2023-05-07T03:23:44;100909.33;;;2.27;83.44
59588;BME280;45412;54.472;18.464;2023-05-07T03:26:32;100909.28;;;2.29;83.59
59588;BME280;45412;54.472;18.464;2023-05-07T03:29:20;100909.89;;;2.31;83.79
59588;BME280;45412;54.472;18.464;2023-05-07T03:32:08;100908.77;;;2.34;83.90
59588;BME280;45412;54.472;18.464;2023-05-07T03:34:56;100916.05;;;2.36;83.86
59588;BME280;45412;54.472;18.464;2023-05-07T03:37:45;100915.81;;;2.38;83.92
59588;BME280;45412;54.472;18.464;2023-05-07T03:40:33;100916.30;;;2.40;83.91
59588;BME280;45412;54.472;18.464;2023-05-07T03:43:23;100918.52;;;2.41;83.82
59588;BME280;45412;54.472;18.464;2023-05-07T03:46:17;100919.02;;;2.43;83.62
59588;BME280;45412;54.472;18.464;2023-05-07T03:49:06;100920.84;;;2.46;83.83
59588;BME280;45412;54.472;18.464;2023-05-07T03:51:54;100925.83;;;2.49;83.66
59588;BME280;45412;54.472;18.464;2023-05-07T03:54:43;100921.66;;;2.53;83.69
59588;BME280;45412;54.472;18.464;2023-05-07T03:57:32;100926.45;;;2.57;83.46
59588;BME280;45412;54.472;18.464;2023-05-07T04:00:20;100915.04;;;2.53;83.47
59588;BME280;45412;54.472;18.464;2023-05-07T04:03:08;100933.33;;;2.67;83.24
59588;BME280;45412;54.472;18.464;2023-05-07T04:05:57;100937.12;;;2.69;83.33
59588;BME280;45412;54.472;18.464;2023-05-07T04:08:45;100937.14;;;2.74;83.38
59588;BME280;45412;54.472;18.464;2023-05-07T04:11:35;100938.54;;;2.80;83.41
59588;BME280;45412;54.472;18.464;2023-05-07T04:14:25;100936.20;;;2.87;83.67
59588;BME280;45412;54.472;18.464;2023-05-07T04:17:13;100934.30;;;2.98;83.84
59588;BME280;45412;54.472;18.464;2023-05-07T04:20:02;100935.17;;;3.09;83.73
59588;BME280;45412;54.472;18.464;2023-05-07T04:22:50;100933.77;;;3.20;83.76
59588;BME280;45412;54.472;18.464;2023-05-07T04:25:39;100940.75;;;3.31;83.57
59588;BME280;45412;54.472;18.464;2023-05-07T04:28:41;100948.32;;;3.46;83.50
59588;BME280;45412;54.472;18.464;2023-05-07T04:31:30;100953.87;;;3.58;83.04
59588;BME280;45412;54.472;18.464;2023-05-07T04:34:20;100953.59;;;3.71;82.84
59588;BME280;45412;54.472;18.464;2023-05-07T04:37:09;100957.73;;;3.84;82.50
59588;BME280;45412;54.472;18.464;2023-05-07T04:39:59;100956.20;;;3.97;82.21
59588;BME280;45412;54.472;18.464;2023-05-07T04:42:49;100954.98;;;4.12;81.94
59588;BME280;45412;54.472;18.464;2023-05-07T04:45:37;100962.52;;;4.26;81.36
59588;BME280;45412;54.472;18.464;2023-05-07T04:48:27;100958.17;;;4.44;80.87
59588;BME280;45412;54.472;18.464;2023-05-07T04:51:18;100962.90;;;4.63;80.20
59588;BME280;45412;54.472;18.464;2023-05-07T04:54:06;100967.14;;;4.80;79.67
59588;BME280;45412;54.472;18.464;2023-05-07T04:56:53;100971.19;;;4.98;78.63
59588;BME280;45412;54.472;18.464;2023-05-07T04:59:42;100966.05;;;5.17;78.12
59588;BME280;45412;54.472;18.464;2023-05-07T05:02:30;100969.95;;;5.38;76.94
59588;BME280;45412;54.472;18.464;2023-05-07T05:05:18;100967.42;;;5.60;75.73
59588;BME280;45412;54.472;18.464;2023-05-07T05:08:07;100964.13;;;5.96;74.57
59588;BME280;45412;54.472;18.464;2023-05-07T05:10:57;100959.37;;;6.74;72.65
59588;BME280;45412;54.472;18.464;2023-05-07T05:13:46;100960.35;;;8.07;68.18
59588;BME280;45412;54.472;18.464;2023-05-07T05:16:38;100957.88;;;9.77;65.50
59588;BME280;45412;54.472;18.464;2023-05-07T05:19:27;100953.80;;;11.56;59.73
59588;BME280;45412;54.472;18.464;2023-05-07T05:22:15;100957.14;;;13.24;52.86
59588;BME280;45412;54.472;18.464;2023-05-07T05:25:04;100945.84;;;14.81;49.49
59588;BME280;45412;54.472;18.464;2023-05-07T05:27:53;100948.67;;;16.04;42.36
59588;BME280;45412;54.472;18.464;2023-05-07T05:30:41;100947.29;;;17.07;41.42
59588;BME280;45412;54.472;18.464;2023-05-07T05:33:29;100950.52;;;18.13;38.49
59588;BME280;45412;54.472;18.464;2023-05-07T05:36:21;100944.46;;;19.07;35.53
59588;BME280;45412;54.472;18.464;2023-05-07T05:39:10;100947.83;;;19.92;34.77
59588;BME280;45412;54.472;18.464;2023-05-07T05:41:57;100949.61;;;20.78;32.68
59588;BME280;45412;54.472;18.464;2023-05-07T05:44:46;100951.41;;;21.49;30.88
59588;BME280;45412;54.472;18.464;2023-05-07T05:47:34;100949.38;;;22.14;29.15
59588;BME280;45412;54.472;18.464;2023-05-07T05:50:22;100945.17;;;22.67;27.94
59588;BME280;45412;54.472;18.464;2023-05-07T05:53:10;100944.90;;;23.21;27.00
59588;BME280;45412;54.472;18.464;2023-05-07T05:55:59;100949.57;;;23.81;25.87
59588;BME280;45412;54.472;18.464;2023-05-07T05:58:47;100955.92;;;24.28;25.81
59588;BME280;45412;54.472;18.464;2023-05-07T06:01:35;100954.38;;;24.63;24.71
59588;BME280;45412;54.472;18.464;2023-05-07T06:04:24;100951.64;;;24.90;24.50
59588;BME280;45412;54.472;18.464;2023-05-07T06:07:12;100951.88;;;25.17;23.46
59588;BME280;45412;54.472;18.464;2023-05-07T06:10:01;100952.37;;;25.32;23.07
59588;BME280;45412;54.472;18.464;2023-05-07T06:12:50;100956.73;;;25.49;23.04
59588;BME280;45412;54.472;18.464;2023-05-07T06:15:38;100958.05;;;25.77;22.58
59588;BME280;45412;54.472;18.464;2023-05-07T06:18:29;100959.48;;;25.95;21.90
59588;BME280;45412;54.472;18.464;2023-05-07T06:21:17;100960.29;;;26.05;21.71
59588;BME280;45412;54.472;18.464;2023-05-07T06:24:06;100961.32;;;26.14;21.67
59588;BME280;45412;54.472;18.464;2023-05-07T06:26:55;100963.45;;;26.22;21.62
59588;BME280;45412;54.472;18.464;2023-05-07T06:29:43;100967.11;;;26.30;21.20
59588;BME280;45412;54.472;18.464;2023-05-07T06:32:33;100970.77;;;26.49;20.88
59588;BME280;45412;54.472;18.464;2023-05-07T06:35:21;100966.84;;;26.69;20.43
59588;BME280;45412;54.472;18.464;2023-05-07T06:38:10;100967.58;;;26.96;19.80
59588;BME280;45412;54.472;18.464;2023-05-07T06:41:00;100969.59;;;27.10;19.34
59588;BME280;45412;54.472;18.464;2023-05-07T06:43:48;100969.73;;;27.35;19.54
59588;BME280;45412;54.472;18.464;2023-05-07T06:46:57;100973.08;;;27.50;19.19
59588;BME280;45412;54.472;18.464;2023-05-07T06:49:46;100974.59;;;27.66;18.65
59588;BME280;45412;54.472;18.464;2023-05-07T06:52:36;100970.59;;;27.70;18.23
59588;BME280;45412;54.472;18.464;2023-05-07T06:55:25;100976.02;;;27.76;18.54
59588;BME280;45412;54.472;18.464;2023-05-07T06:58:14;100980.52;;;28.00;18.27
59588;BME280;45412;54.472;18.464;2023-05-07T07:01:05;100979.11;;;28.32;17.83
59588;BME280;45412;54.472;18.464;2023-05-07T07:03:55;100976.92;;;28.46;17.82
59588;BME280;45412;54.472;18.464;2023-05-07T07:06:44;100980.50;;;28.47;17.22
59588;BME280;45412;54.472;18.464;2023-05-07T07:09:33;100975.27;;;28.48;17.21
59588;BME280;45412;54.472;18.464;2023-05-07T07:12:22;100980.25;;;28.56;16.78
59588;BME280;45412;54.472;18.464;2023-05-07T07:15:16;100979.89;;;28.67;17.07
59588;BME280;45412;54.472;18.464;2023-05-07T07:18:06;100980.25;;;28.71;16.85
59588;BME280;45412;54.472;18.464;2023-05-07T07:20:54;100980.12;;;28.63;16.14
59588;BME280;45412;54.472;18.464;2023-05-07T07:23:43;100983.33;;;28.63;16.01
59588;BME280;45412;54.472;18.464;2023-05-07T07:26:32;100988.30;;;28.73;16.15
59588;BME280;45412;54.472;18.464;2023-05-07T07:29:20;100984.73;;;28.89;16.06
59588;BME280;45412;54.472;18.464;2023-05-07T07:32:08;100985.02;;;29.10;15.88
59588;BME280;45412;54.472;18.464;2023-05-07T07:34:57;100987.77;;;29.25;15.86
59588;BME280;45412;54.472;18.464;2023-05-07T07:37:46;100985.77;;;29.30;15.97
59588;BME280;45412;54.472;18.464;2023-05-07T07:40:35;100986.14;;;29.38;16.31
59588;BME280;45412;54.472;18.464;2023-05-07T07:43:24;100985.88;;;29.23;16.16
59588;BME280;45412;54.472;18.464;2023-05-07T07:46:13;100991.84;;;28.62;15.82
59588;BME280;45412;54.472;18.464;2023-05-07T07:49:03;100986.52;;;27.88;15.92
59588;BME280;45412;54.472;18.464;2023-05-07T07:51:52;100987.08;;;27.86;15.83
59588;BME280;45412;54.472;18.464;2023-05-07T07:54:42;100991.91;;;27.91;15.71
59588;BME280;45412;54.472;18.464;2023-05-07T07:57:30;100990.48;;;27.88;15.69
59588;BME280;45412;54.472;18.464;2023-05-07T08:00:19;100995.17;;;27.69;15.72
59588;BME280;45412;54.472;18.464;2023-05-07T08:03:10;100993.46;;;27.91;16.26
59588;BME280;45412;54.472;18.464;2023-05-07T08:06:01;100990.50;;;28.24;15.74
59588;BME280;45412;54.472;18.464;2023-05-07T08:08:52;100991.29;;;27.74;15.29
59588;BME280;45412;54.472;18.464;2023-05-07T08:11:40;100996.80;;;27.61;15.30
59588;BME280;45412;54.472;18.464;2023-05-07T08:14:29;100996.98;;;27.23;15.27
59588;BME280;45412;54.472;18.464;2023-05-07T08:17:17;101002.68;;;27.03;15.72
59588;BME280;45412;54.472;18.464;2023-05-07T08:20:07;100996.53;;;27.16;16.46
59588;BME280;45412;54.472;18.464;2023-05-07T08:22:56;100999.50;;;27.28;15.96
59588;BME280;45412;54.472;18.464;2023-05-07T08:25:44;100997.84;;;27.73;15.91
59588;BME280;45412;54.472;18.464;2023-05-07T08:28:32;100994.40;;;27.98;15.24
59588;BME280;45412;54.472;18.464;2023-05-07T08:31:20;100991.42;;;27.85;15.52
59588;BME280;45412;54.472;18.464;2023-05-07T08:34:09;100995.88;;;27.69;14.80
59588;BME280;45412;54.472;18.464;2023-05-07T08:37:00;100999.73;;;27.96;15.42
59588;BME280;45412;54.472;18.464;2023-05-07T08:39:49;100999.63;;;28.21;15.51
59588;BME280;45412;54.472;18.464;2023-05-07T08:42:41;100999.30;;;28.54;15.04
59588;BME280;45412;54.472;18.464;2023-05-07T08:45:33;101001.80;;;28.70;14.45
59588;BME280;45412;54.472;18.464;2023-05-07T08:48:25;101001.02;;;28.82;14.30
59588;BME280;45412;54.472;18.464;2023-05-07T08:51:21;101001.13;;;28.44;14.17
59588;BME280;45412;54.472;18.464;2023-05-07T08:54:10;101009.59;;;28.35;13.86
59588;BME280;45412;54.472;18.464;2023-05-07T08:56:59;101009.03;;;28.35;13.79
59588;BME280;45412;54.472;18.464;2023-05-07T08:59:48;101009.69;;;27.94;14.10
59588;BME280;45412;54.472;18.464;2023-05-07T09:02:37;101011.35;;;27.86;14.56
59588;BME280;45412;54.472;18.464;2023-05-07T09:05:26;101009.34;;;27.95;14.53
59588;BME280;45412;54.472;18.464;2023-05-07T09:08:15;101014.14;;;27.87;14.27
59588;BME280;45412;54.472;18.464;2023-05-07T09:11:06;101014.85;;;27.86;14.16
59588;BME280;45412;54.472;18.464;2023-05-07T09:13:57;101009.74;;;28.10;14.36
59588;BME280;45412;54.472;18.464;2023-05-07T09:16:47;101008.33;;;28.08;15.37
59588;BME280;45412;54.472;18.464;2023-05-07T09:19:37;101012.48;;;28.10;14.95
59588;BME280;45412;54.472;18.464;2023-05-07T09:22:25;101012.11;;;28.35;14.35
59588;BME280;45412;54.472;18.464;2023-05-07T09:25:31;101014.08;;;28.53;14.12
59588;BME280;45412;54.472;18.464;2023-05-07T09:28:22;101012.70;;;28.43;14.29
59588;BME280;45412;54.472;18.464;2023-05-07T09:31:12;101008.55;;;28.58;14.23
59588;BME280;45412;54.472;18.464;2023-05-07T09:34:00;101017.54;;;28.73;14.49
59588;BME280;45412;54.472;18.464;2023-05-07T09:36:53;101016.82;;;28.68;14.19
59588;BME280;45412;54.472;18.464;2023-05-07T09:39:47;101017.93;;;28.61;14.50
59588;BME280;45412;54.472;18.464;2023-05-07T09:42:38;101015.74;;;28.64;15.08
59588;BME280;45412;54.472;18.464;2023-05-07T09:45:28;101020.80;;;28.60;14.25
59588;BME280;45412;54.472;18.464;2023-05-07T09:48:18;101020.02;;;28.38;14.18
59588;BME280;45412;54.472;18.464;2023-05-07T09:51:39;101012.70;;;28.32;14.40
59588;BME280;45412;54.472;18.464;2023-05-07T09:54:30;101013.71;;;28.03;14.30
59588;BME280;45412;54.472;18.464;2023-05-07T09:57:20;101018.80;;;27.91;14.05
59588;BME280;45412;54.472;18.464;2023-05-07T10:00:13;101017.38;;;27.99;14.60
59588;BME280;45412;54.472;18.464;2023-05-07T10:03:09;101014.21;;;27.94;14.64
59588;BME280;45412;54.472;18.464;2023-05-07T10:06:05;101017.41;;;28.06;15.02
59588;BME280;45412;54.472;18.464;2023-05-07T10:08:55;101016.71;;;28.08;15.05
59588;BME280;45412;54.472;18.464;2023-05-07T10:11:44;101016.66;;;28.13;14.64
59588;BME280;45412;54.472;18.464;2023-05-07T10:14:34;101018.91;;;28.01;14.21
59588;BME280;45412;54.472;18.464;2023-05-07T10:17:23;101019.24;;;27.61;14.26
59588;BME280;45412;54.472;18.464;2023-05-07T10:20:13;101022.00;;;27.38;13.58
59588;BME280;45412;54.472;18.464;2023-05-07T10:23:04;101022.81;;;27.06;14.08
59588;BME280;45412;54.472;18.464;2023-05-07T10:25:59;101023.77;;;27.05;14.68
59588;BME280;45412;54.472;18.464;2023-05-07T10:28:56;101025.55;;;26.92;14.57
59588;BME280;45412;54.472;18.464;2023-05-07T10:35:26;101017.65;;;27.06;14.43
59588;BME280;45412;54.472;18.464;2023-05-07T10:38:15;101022.79;;;26.97;14.30
59588;BME280;45412;54.472;18.464;2023-05-07T10:41:04;101025.88;;;26.78;14.15
59588;BME280;45412;54.472;18.464;2023-05-07T10:43:55;101022.40;;;26.62;14.90
59588;BME280;45412;54.472;18.464;2023-05-07T10:47:07;101023.67;;;26.69;14.48
59588;BME280;45412;54.472;18.464;2023-05-07T11:02:17;101012.88;;;27.99;14.37
59588;BME280;45412;54.472;18.464;2023-05-07T11:05:22;101007.73;;;28.36;14.26
59588;BME280;45412;54.472;18.464;2023-05-07T11:11:50;101016.24;;;28.29;13.98
59588;BME280;45412;54.472;18.464;2023-05-07T11:15:15;101010.73;;;27.51;14.51
59588;BME280;45412;54.472;18.464;2023-05-07T11:18:05;101022.27;;;26.84;15.35
59588;BME280;45412;54.472;18.464;2023-05-07T11:20:58;101021.96;;;26.27;15.75
59588;BME280;45412;54.472;18.464;2023-05-07T11:26:49;101024.75;;;25.10;16.12
59588;BME280;45412;54.472;18.464;2023-05-07T11:29:39;101024.85;;;24.59;17.20
59588;BME280;45412;54.472;18.464;2023-05-07T11:32:34;101024.16;;;24.14;17.41
59588;BME280;45412;54.472;18.464;2023-05-07T11:35:25;101025.92;;;23.79;17.83
59588;BME280;45412;54.472;18.464;2023-05-07T11:38:19;101026.23;;;23.27;18.31
59588;BME280;45412;54.472;18.464;2023-05-07T11:41:08;101034.68;;;22.85;19.47
59588;BME280;45412;54.472;18.464;2023-05-07T11:43:59;101041.13;;;22.55;20.09
59588;BME280;45412;54.472;18.464;2023-05-07T11:46:49;101043.47;;;21.93;20.14
59588;BME280;45412;54.472;18.464;2023-05-07T11:49:39;101033.89;;;21.29;20.22
59588;BME280;45412;54.472;18.464;2023-05-07T11:52:30;101040.26;;;20.66;21.03
59588;BME280;45412;54.472;18.464;2023-05-07T11:55:18;101040.45;;;20.05;21.39
59588;BME280;45412;54.472;18.464;2023-05-07T11:58:11;101037.59;;;19.42;22.67
59588;BME280;45412;54.472;18.464;2023-05-07T12:01:00;101035.56;;;18.89;22.79
59588;BME280;45412;54.472;18.464;2023-05-07T12:03:48;101043.44;;;18.56;23.80
59588;BME280;45412;54.472;18.464;2023-05-07T12:06:39;101046.42;;;18.19;23.51
59588;BME280;45412;54.472;18.464;2023-05-07T12:09:27;101045.33;;;17.84;25.02
59588;BME280;45412;54.472;18.464;2023-05-07T12:12:16;101045.27;;;17.69;25.19
59588;BME280;45412;54.472;18.464;2023-05-07T12:15:07;101040.98;;;17.40;24.57
59588;BME280;45412;54.472;18.464;2023-05-07T12:17:55;101047.41;;;17.00;25.27
59588;BME280;45412;54.472;18.464;2023-05-07T12:20:44;101048.00;;;16.78;27.06
59588;BME280;45412;54.472;18.464;2023-05-07T12:23:37;101047.13;;;16.68;28.14
59588;BME280;45412;54.472;18.464;2023-05-07T12:26:26;101046.92;;;16.54;27.41
59588;BME280;45412;54.472;18.464;2023-05-07T12:29:14;101055.17;;;16.37;28.10
59588;BME280;45412;54.472;18.464;2023-05-07T12:32:05;101049.46;;;16.37;28.40
59588;BME280;45412;54.472;18.464;2023-05-07T12:34:57;101051.23;;;16.37;28.12
59588;BME280;45412;54.472;18.464;2023-05-07T12:37:55;101049.91;;;16.30;27.04
59588;BME280;45412;54.472;18.464;2023-05-07T12:40:53;101052.94;;;16.24;26.36
59588;BME280;45412;54.472;18.464;2023-05-07T12:43:45;101054.57;;;16.15;27.25
59588;BME280;45412;54.472;18.464;2023-05-07T12:46:38;101059.07;;;16.00;28.04
59588;BME280;45412;54.472;18.464;2023-05-07T12:49:27;101061.35;;;15.83;27.92
59588;BME280;45412;54.472;18.464;2023-05-07T12:52:17;101061.44;;;15.74;28.30
59588;BME280;45412;54.472;18.464;2023-05-07T12:55:06;101059.45;;;15.74;28.60
59588;BME280;45412;54.472;18.464;2023-05-07T12:57:56;101064.48;;;15.70;28.35
59588;BME280;45412;54.472;18.464;2023-05-07T13:00:50;101062.55;;;15.60;28.15
59588;BME280;45412;54.472;18.464;2023-05-07T13:03:39;101062.01;;;15.47;27.57
59588;BME280;45412;54.472;18.464;2023-05-07T13:06:28;101063.35;;;15.28;28.48
59588;BME280;45412;54.472;18.464;2023-05-07T13:09:16;101063.34;;;15.22;28.40
59588;BME280;45412;54.472;18.464;2023-05-07T13:12:06;101060.64;;;15.18;28.54
59588;BME280;45412;54.472;18.464;2023-05-07T13:14:55;101062.55;;;15.14;28.49
59588;BME280;45412;54.472;18.464;2023-05-07T13:17:43;101063.30;;;15.13;28.45
59588;BME280;45412;54.472;18.464;2023-05-07T13:20:32;101061.92;;;15.06;28.54
59588;BME280;45412;54.472;18.464;2023-05-07T13:23:20;101065.83;;;15.04;28.86
59588;BME280;45412;54.472;18.464;2023-05-07T13:26:08;101062.48;;;14.97;29.67
59588;BME280;45412;54.472;18.464;2023-05-07T13:29:13;101064.73;;;14.89;30.15
59588;BME280;45412;54.472;18.464;2023-05-07T13:32:01;101067.89;;;14.92;30.29
59588;BME280;45412;54.472;18.464;2023-05-07T13:34:51;101070.23;;;14.94;30.02
59588;BME280;45412;54.472;18.464;2023-05-07T13:37:39;101065.55;;;14.92;29.51
59588;BME280;45412;54.472;18.464;2023-05-07T13:40:33;101068.81;;;14.91;29.41
59588;BME280;45412;54.472;18.464;2023-05-07T13:43:24;101062.46;;;14.93;29.78
59588;BME280;45412;54.472;18.464;2023-05-07T13:46:13;101058.17;;;14.86;29.48
59588;BME280;45412;54.472;18.464;2023-05-07T13:49:01;101064.47;;;14.74;29.04
59588;BME280;45412;54.472;18.464;2023-05-07T13:51:50;101062.21;;;14.65;29.29
59588;BME280;45412;54.472;18.464;2023-05-07T13:54:38;101059.38;;;14.62;29.89
59588;BME280;45412;54.472;18.464;2023-05-07T13:57:27;101059.04;;;14.57;29.92
59588;BME280;45412;54.472;18.464;2023-05-07T14:00:15;101061.13;;;14.60;29.91
59588;BME280;45412;54.472;18.464;2023-05-07T14:03:05;101059.06;;;14.54;29.51
59588;BME280;45412;54.472;18.464;2023-05-07T14:05:54;101062.19;;;14.55;29.89
59588;BME280;45412;54.472;18.464;2023-05-07T14:08:42;101064.30;;;14.58;30.57
59588;BME280;45412;54.472;18.464;2023-05-07T14:11:30;101062.38;;;14.53;30.04
59588;BME280;45412;54.472;18.464;2023-05-07T14:14:21;101063.94;;;14.49;30.37
59588;BME280;45412;54.472;18.464;2023-05-07T14:17:09;101063.32;;;14.41;29.95
59588;BME280;45412;54.472;18.464;2023-05-07T14:19:58;101066.46;;;14.41;29.92
59588;BME280;45412;54.472;18.464;2023-05-07T14:22:46;101062.54;;;14.46;29.95
59588;BME280;45412;54.472;18.464;2023-05-07T14:25:35;101064.92;;;14.43;29.27
59588;BME280;45412;54.472;18.464;2023-05-07T14:28:25;101068.30;;;14.36;29.01
59588;BME280;45412;54.472;18.464;2023-05-07T14:31:13;101070.80;;;14.27;29.58
59588;BME280;45412;54.472;18.464;2023-05-07T14:34:03;101073.19;;;14.10;30.05
59588;BME280;45412;54.472;18.464;2023-05-07T14:36:54;101072.29;;;14.10;29.92
59588;BME280;45412;54.472;18.464;2023-05-07T14:39:47;101079.34;;;14.13;29.66
59588;BME280;45412;54.472;18.464;2023-05-07T14:42:37;101078.02;;;14.05;29.81
59588;BME280;45412;54.472;18.464;2023-05-07T14:45:26;101078.20;;;14.05;29.64
59588;BME280;45412;54.472;18.464;2023-05-07T14:48:14;101076.48;;;14.02;29.40
59588;BME280;45412;54.472;18.464;2023-05-07T14:51:03;101077.92;;;13.97;29.58
59588;BME280;45412;54.472;18.464;2023-05-07T14:53:52;101079.52;;;13.97;29.74
59588;BME280;45412;54.472;18.464;2023-05-07T14:56:41;101079.66;;;13.97;30.23
59588;BME280;45412;54.472;18.464;2023-05-07T14:59:29;101077.82;;;13.94;30.12
59588;BME280;45412;54.472;18.464;2023-05-07T15:02:18;101076.89;;;13.91;29.58